This is the latest recevied weather packets stored in our database for station/object JM1YTT-13. If no packets are shown the sender has not sent any weather packets the latest 10 day(s).
| Time | Temp. | Humidity | Pressure | Rain* | Wind** | Luminosity | Snow |
|---|---|---|---|---|---|---|---|
| 1777642990 | 15° C | 79% | 993.4 hPa | 0 mm | - | - | - |
| 1777641190 | 15.56° C | 77% | 993 hPa | 0 mm | - | - | - |
| 1777639390 | 16.67° C | 76% | 992.8 hPa | 0 mm | - | - | - |
| 1777637590 | 17.22° C | 71% | 992.1 hPa | 0 mm | - | - | - |
| 1777635790 | 17.78° C | 65% | 991.5 hPa | 0 mm | - | - | - |
| 1777633990 | 17.78° C | 64% | 990.3 hPa | 0 mm | - | - | - |
| 1777632190 | 17.78° C | 75% | 990.4 hPa | 0 mm | - | - | - |
| 1777630390 | 18.33° C | 77% | 991.1 hPa | 0 mm | - | - | - |
| 1777628590 | 19.44° C | 72% | 990.7 hPa | 0 mm | - | - | - |
| 1777626790 | 20.56° C | 71% | 990.9 hPa | 0 mm | - | - | - |
| 1777624990 | 21.67° C | 70% | 991.4 hPa | 0 mm | - | - | - |
| 1777623190 | 22.22° C | 70% | 991.8 hPa | 0 mm | - | - | - |
| 1777621390 | 22.78° C | 76% | 992.3 hPa | 0 mm | - | - | - |
| 1777619590 | 22.22° C | 83% | 993 hPa | 0 mm | - | - | - |
| 1777617790 | 21.11° C | 91% | 993.7 hPa | 0 mm | - | - | - |
| 1777615990 | 20° C | 96% | 994 hPa | 0 mm | - | - | - |
| 1777614190 | 20° C | 97% | 994.7 hPa | 0 mm | - | - | - |
| 1777612390 | 19.44° C | 97% | 995.6 hPa | 0 mm | - | - | - |
| 1777610590 | 18.33° C | 97% | 996 hPa | 0 mm | - | - | - |
| 1777608790 | 17.22° C | 97% | 997.1 hPa | 0 mm | - | - | - |
| 1777606990 | 16.67° C | 97% | 997.8 hPa | 0 mm | - | - | - |
| 1777605190 | 10.56° C | 95% | 1012.9 hPa | 0 mm | - | - | - |
| 1777603390 | 10.56° C | 95% | 1012.9 hPa | 0 mm | - | - | - |
| 1777601590 | 10.56° C | 95% | 1012.9 hPa | 0 mm | - | - | - |
| 1777599790 | 10.56° C | 95% | 1012.9 hPa | 0 mm | - | - | - |
* Rain latest hour (hover to see other rain measurements)
** Current wind speed in m/s (hover to see current wind gust speed)